Time;durP1;ratioP1;P1;durP2;ratioP2;P2;SDS_P1;SDS_P2;PMS_P1;PMS_P2;Temp;Humidity;BMP_temperature;BMP_pressure;BME280_temperature;BME280_humidity;BME280_pressure;Samples;Min_cycle;Max_cycle;Signal;HPM_P1;HPM_P2
2022/09/25 00:01:03;;;;;;;17.97;16.07;;;;;;;13.47;93.88;100531.00;5062794;28;20216;-82
2022/09/25 00:03:31;;;;;;;18.37;16.37;;;;;;;13.48;93.77;100529.19;5067064;28;20255;-82
2022/09/25 00:06:04;;;;;;;19.57;16.57;;;;;;;13.47;94.01;100527.47;5066609;28;20209;-82
2022/09/25 00:08:31;;;;;;;17.93;15.80;;;;;;;13.45;93.61;100516.88;5061368;28;20239;-82
2022/09/25 00:10:58;;;;;;;19.67;16.77;;;;;;;13.44;93.49;100519.69;5066252;28;20201;-82
2022/09/25 00:13:24;;;;;;;18.70;15.87;;;;;;;13.43;94.20;100518.84;5059789;28;20589;-82
2022/09/25 00:15:53;;;;;;;22.40;16.60;;;;;;;13.43;93.69;100518.84;5070156;28;20690;-82
2022/09/25 00:19:48;;;;;;;21.10;17.03;;;;;;;13.44;93.97;100512.50;5063689;28;20204;-82
2022/09/25 00:21:10;;;;;;;21.37;17.53;;;;;;;13.43;94.30;100513.50;5057336;28;20309;-81
2022/09/25 00:23:37;;;;;;;19.00;16.73;;;;;;;13.44;93.80;100511.66;5059364;28;20225;-83
2022/09/25 00:26:06;;;;;;;21.13;16.30;;;;;;;13.42;94.02;100513.63;5067627;28;20221;-82
2022/09/25 00:28:34;;;;;;;19.50;17.23;;;;;;;13.40;93.91;100508.38;5063270;28;20205;-82
2022/09/25 00:31:01;;;;;;;22.30;17.10;;;;;;;13.38;93.83;100509.47;5064328;28;20201;-83
2022/09/25 00:33:28;;;;;;;19.13;17.00;;;;;;;13.36;94.07;100504.25;5063532;28;20710;-83
2022/09/25 00:35:54;;;;;;;20.50;16.37;;;;;;;13.36;93.89;100503.38;5065633;28;20239;-83
2022/09/25 00:38:22;;;;;;;20.53;16.07;;;;;;;13.35;93.92;100512.38;5070197;28;20402;-82
2022/09/25 00:40:48;;;;;;;20.53;16.57;;;;;;;13.34;94.08;100505.31;5073141;28;20206;-83
2022/09/25 00:43:32;;;;;;;18.33;16.40;;;;;;;13.32;94.02;100507.25;5063063;28;20229;-84
2022/09/25 00:46:00;;;;;;;18.37;16.40;;;;;;;13.30;94.19;100506.53;5069420;28;20815;-83
2022/09/25 00:48:26;;;;;;;18.77;16.70;;;;;;;13.29;93.66;100511.03;5066616;28;20212;-83
2022/09/25 00:50:57;;;;;;;19.40;16.50;;;;;;;13.28;94.36;100513.81;5062684;28;20701;-82
2022/09/25 00:53:29;;;;;;;20.63;17.43;;;;;;;13.28;94.35;100511.97;5054843;28;20222;-83
2022/09/25 00:55:57;;;;;;;22.60;17.40;;;;;;;13.29;93.98;100507.50;5055351;28;21063;-83
2022/09/25 00:58:27;;;;;;;20.17;17.07;;;;;;;13.28;94.49;100503.09;5061440;28;20219;-83
2022/09/25 01:00:54;;;;;;;19.00;16.97;;;;;;;13.28;94.22;100509.31;5066319;28;20216;-83
2022/09/25 01:03:22;;;;;;;19.53;16.47;;;;;;;13.28;94.18;100511.13;5069319;28;20698;-83
2022/09/25 01:05:49;;;;;;;19.33;17.27;;;;;;;13.26;94.58;100515.75;5080864;28;20197;-84
2022/09/25 01:08:21;;;;;;;20.90;17.93;;;;;;;13.25;94.23;100511.41;5074659;28;20667;-83
2022/09/25 01:10:49;;;;;;;22.07;18.63;;;;;;;13.22;94.42;100517.81;5065432;28;20244;-83
2022/09/25 01:13:16;;;;;;;20.97;17.87;;;;;;;13.18;94.27;100509.19;5065623;28;20232;-84
2022/09/25 01:15:48;;;;;;;22.83;17.70;;;;;;;13.17;94.41;100512.81;5076409;28;20208;-83
2022/09/25 01:18:25;;;;;;;22.70;17.97;;;;;;;13.16;94.32;100512.94;5076218;28;20207;-83
2022/09/25 01:21:13;;;;;;;20.63;18.40;;;;;;;13.14;94.06;100515.69;5076265;28;20204;-83
2022/09/25 01:24:05;;;;;;;23.30;18.53;;;;;;;13.14;94.60;100510.34;5072905;28;20229;-83
2022/09/25 01:27:09;;;;;;;21.53;18.30;;;;;;;13.14;94.64;100507.66;5050596;28;20259;-83
2022/09/25 01:29:42;;;;;;;19.57;17.10;;;;;;;13.13;94.48;100510.47;5050723;28;20232;-83
2022/09/25 01:32:17;;;;;;;21.27;16.80;;;;;;;13.12;94.62;100512.28;5070298;28;20196;-84
2022/09/25 01:34:52;;;;;;;19.60;16.60;;;;;;;13.09;94.54;100509.81;5068160;28;20225;-83
2022/09/25 01:37:25;;;;;;;20.70;15.53;;;;;;;13.06;94.05;100512.75;5063733;28;20228;-84
2022/09/25 01:40:05;;;;;;;16.57;14.70;;;;;;;13.06;94.34;100518.09;5067540;28;20216;-83
2022/09/25 01:42:38;;;;;;;19.03;14.63;;;;;;;13.06;94.34;100517.25;5064558;28;20212;-83
2022/09/25 01:45:10;;;;;;;16.57;13.60;;;;;;;13.03;94.14;100512.13;5068241;28;20710;-82
2022/09/25 01:47:39;;;;;;;15.00;13.40;;;;;;;13.01;94.40;100520.28;5072494;28;20608;-83
2022/09/25 01:50:09;;;;;;;18.73;13.47;;;;;;;13.00;94.46;100515.03;5070799;28;20225;-83
2022/09/25 01:52:44;;;;;;;16.37;13.67;;;;;;;12.99;94.35;100516.84;5078374;28;20205;-84
2022/09/25 01:55:16;;;;;;;14.67;13.13;;;;;;;12.98;94.04;100520.50;5069027;28;20704;-83
2022/09/25 01:57:48;;;;;;;20.00;14.90;;;;;;;12.96;93.92;100511.72;5076351;28;20212;-83
2022/09/25 02:00:20;;;;;;;15.87;12.73;;;;;;;12.95;93.97;100512.69;5066686;28;20223;-82
2022/09/25 02:02:54;;;;;;;17.20;14.03;;;;;;;12.93;94.43;100514.63;5077530;28;20200;-83
2022/09/25 02:05:26;;;;;;;15.83;12.97;;;;;;;12.92;94.03;100507.59;5068418;28;20208;-82
2022/09/25 02:07:59;;;;;;;13.57;12.17;;;;;;;12.91;94.25;100513.03;5081402;28;20720;-82
2022/09/25 02:10:33;;;;;;;15.47;12.63;;;;;;;12.89;94.18;100510.50;5073621;28;20212;-83
2022/09/25 02:13:08;;;;;;;15.50;13.23;;;;;;;12.88;94.07;100506.13;5071748;28;20639;-83
2022/09/25 02:15:39;;;;;;;14.57;12.97;;;;;;;12.89;94.47;100512.34;5073337;28;20603;-83
2022/09/25 02:21:02;;;;;;;15.83;12.90;;;;;;;12.85;94.59;100503.69;5075605;28;20219;-82
2022/09/25 02:23:36;;;;;;;17.90;13.77;;;;;;;12.83;94.52;100500.28;5082990;28;20885;-82
2022/09/25 02:26:07;;;;;;;15.87;13.17;;;;;;;12.83;94.36;100502.94;5073653;28;20203;-83
2022/09/25 02:28:34;;;;;;;19.60;12.50;;;;;;;12.82;94.33;100501.25;5079780;28;20207;-82
2022/09/25 02:31:06;;;;;;;15.27;13.63;;;;;;;12.81;94.90;100507.53;5068473;28;20225;-82
2022/09/25 02:33:33;;;;;;;16.00;12.10;;;;;;;12.80;94.88;100512.03;5072939;28;20229;-83
2022/09/25 02:36:03;;;;;;;16.23;12.83;;;;;;;12.79;94.93;100514.81;5071762;28;20566;-83
2022/09/25 02:38:32;;;;;;;16.47;13.53;;;;;;;12.77;94.94;100506.91;5076172;28;20205;-84
2022/09/25 02:41:06;;;;;;;14.23;12.70;;;;;;;12.75;94.81;100518.69;5079270;28;20304;-82
2022/09/25 02:43:46;;;;;;;12.60;11.20;;;;;;;12.74;95.33;100519.66;5072653;28;20229;-82
2022/09/25 02:46:24;;;;;;;16.27;13.03;;;;;;;12.73;95.23;100520.63;5071158;28;20205;-83
2022/09/25 02:48:54;;;;;;;16.87;12.63;;;;;;;12.70;95.17;100519.03;5076620;28;20696;-82
2022/09/25 02:51:29;;;;;;;16.70;12.63;;;;;;;12.69;95.62;100524.50;5075729;28;20220;-83
2022/09/25 02:54:06;;;;;;;16.43;13.03;;;;;;;12.67;95.53;100511.25;5064391;28;20254;-83
2022/09/25 02:56:37;;;;;;;17.87;13.30;;;;;;;12.66;95.57;100519.38;5076389;28;20201;-83
2022/09/25 02:59:07;;;;;;;17.93;14.30;;;;;;;12.63;95.83;100512.44;5071502;28;20206;-84
2022/09/25 03:01:38;;;;;;;19.60;14.60;;;;;;;12.62;95.92;100510.72;5076454;28;20213;-83
2022/09/25 03:04:05;;;;;;;19.93;15.43;;;;;;;12.60;96.08;100510.00;5083473;28;20711;-82
2022/09/25 03:06:32;;;;;;;21.57;15.00;;;;;;;12.58;96.42;100506.56;5076222;28;20209;-83
2022/09/25 03:09:01;;;;;;;25.13;16.37;;;;;;;12.57;96.31;100514.69;5072420;28;20232;-83
2022/09/25 03:11:28;;;;;;;23.50;16.50;;;;;;;12.56;96.42;100507.66;5076546;28;20776;-83
2022/09/25 03:13:56;;;;;;;25.93;17.43;;;;;;;12.54;96.72;100517.63;5075165;28;20296;-84
2022/09/25 03:16:34;;;;;;;22.50;17.13;;;;;;;12.50;96.94;100512.50;5075426;28;20217;-82
2022/09/25 03:19:02;;;;;;;27.00;17.07;;;;;;;12.50;96.87;100515.19;5076112;28;20229;-84
2022/09/25 03:21:29;;;;;;;20.47;16.60;;;;;;;12.50;97.08;100512.50;5080044;28;20214;-83
2022/09/25 03:23:56;;;;;;;24.10;18.07;;;;;;;12.49;97.25;100508.13;5070727;28;20318;-83
2022/09/25 03:26:24;;;;;;;24.50;16.70;;;;;;;12.48;97.07;100514.44;5064555;28;20236;-83
2022/09/25 03:28:51;;;;;;;24.87;16.87;;;;;;;12.48;97.00;100510.91;5075839;28;20251;-83
2022/09/25 03:31:18;;;;;;;26.27;15.97;;;;;;;12.47;97.01;100515.38;5073208;28;20573;-84
2022/09/25 03:33:45;;;;;;;19.23;15.80;;;;;;;12.47;97.08;100506.53;5070682;28;20228;-83
2022/09/25 03:36:15;;;;;;;19.30;16.60;;;;;;;12.47;97.25;100510.06;5066168;28;20862;-82
2022/09/25 03:38:42;;;;;;;21.60;15.60;;;;;;;12.45;97.24;100506.63;5071712;28;20234;-83
2022/09/25 03:41:10;;;;;;;19.00;15.40;;;;;;;12.46;97.39;100511.00;5074970;28;20676;-83
2022/09/25 03:43:38;;;;;;;18.97;15.33;;;;;;;12.46;97.17;100505.66;5071491;28;20256;-83
2022/09/25 03:46:05;;;;;;;19.07;15.40;;;;;;;12.45;97.47;100506.63;5083962;28;20197;-82
2022/09/25 03:48:32;;;;;;;19.70;15.03;;;;;;;12.45;97.55;100506.63;5067560;28;20203;-82
2022/09/25 03:50:59;;;;;;;21.70;15.27;;;;;;;12.46;97.38;100510.16;5072128;28;20219;-82
2022/09/25 03:53:30;;;;;;;20.53;17.20;;;;;;;12.45;97.61;100509.31;5063025;28;20726;-82
2022/09/25 03:55:56;;;;;;;25.87;16.60;;;;;;;12.43;97.58;100511.22;5070242;28;20674;-83
2022/09/25 03:58:22;;;;;;;19.90;16.13;;;;;;;12.42;97.49;100504.19;5062945;28;20205;-84
2022/09/25 04:00:49;;;;;;;27.33;16.73;;;;;;;12.43;97.27;100502.38;5073351;28;20591;-83
2022/09/25 04:03:16;;;;;;;21.57;17.20;;;;;;;12.42;97.32;100501.50;5065797;28;20231;-82
2022/09/25 04:05:45;;;;;;;21.57;17.17;;;;;;;12.42;97.45;100503.31;5067052;28;20314;-83
2022/09/25 04:08:11;;;;;;;22.13;17.87;;;;;;;12.40;97.57;100498.09;5066644;28;20227;-84
2022/09/25 04:10:39;;;;;;;24.23;17.03;;;;;;;12.41;97.43;100499.81;5075047;28;20325;-83
2022/09/25 04:13:07;;;;;;;24.00;17.80;;;;;;;12.40;97.30;100502.59;5075357;28;20656;-83
2022/09/25 04:15:33;;;;;;;21.80;16.67;;;;;;;12.40;97.68;100498.09;5077167;28;20268;-82
2022/09/25 04:18:00;;;;;;;22.70;16.67;;;;;;;12.40;97.39;100495.44;5078804;28;20213;-83
2022/09/25 04:20:27;;;;;;;21.67;17.17;;;;;;;12.38;97.71;100494.69;5075779;28;20209;-83
2022/09/25 04:22:53;;;;;;;26.77;16.93;;;;;;;12.38;97.60;100493.81;5073416;28;20290;-83
2022/09/25 04:25:24;;;;;;;21.97;16.60;;;;;;;12.38;97.64;100488.47;5071307;28;20208;-83
2022/09/25 04:27:52;;;;;;;24.40;17.50;;;;;;;12.38;97.70;100486.66;5070477;28;20247;-83
2022/09/25 04:30:19;;;;;;;26.27;16.77;;;;;;;12.36;97.54;100487.78;5073828;28;20220;-83
2022/09/25 04:35:30;;;;;;;21.17;16.27;;;;;;;12.35;97.70;100484.25;5080703;28;20708;-83
2022/09/25 04:37:56;;;;;;;21.97;15.70;;;;;;;12.34;97.48;100484.38;5081993;28;20669;-82
2022/09/25 04:40:23;;;;;;;27.30;16.43;;;;;;;12.34;97.44;100487.03;5071363;28;20204;-83
2022/09/25 04:42:55;;;;;;;30.10;17.13;;;;;;;12.32;97.58;100492.47;5074416;28;20205;-84
2022/09/25 04:45:21;;;;;;;25.67;17.43;;;;;;;12.30;97.93;100489.06;5070936;28;20769;-84
2022/09/25 04:47:48;;;;;;;23.30;16.53;;;;;;;12.31;97.61;100489.91;5072051;28;20232;-83
2022/09/25 04:50:14;;;;;;;21.60;16.73;;;;;;;12.31;97.79;100496.13;5067230;28;20681;-83
2022/09/25 04:52:41;;;;;;;27.20;16.10;;;;;;;12.31;98.08;100489.91;5070508;28;20207;-83
2022/09/25 04:55:08;;;;;;;25.93;16.27;;;;;;;12.32;98.21;100491.63;5077573;28;20343;-84
2022/09/25 04:57:35;;;;;;;22.47;15.40;;;;;;;12.31;98.26;100490.78;5070822;28;20205;-83
2022/09/25 05:00:04;;;;;;;21.57;15.17;;;;;;;12.30;97.99;100499.75;5074189;28;20584;-84
2022/09/25 05:02:31;;;;;;;21.47;15.00;;;;;;;12.30;97.95;100497.06;5078645;28;20197;-84
2022/09/25 05:04:57;;;;;;;20.67;15.23;;;;;;;12.30;97.96;100496.22;5073957;28;20823;-82
2022/09/25 05:07:24;;;;;;;21.70;15.33;;;;;;;12.31;98.29;100489.91;5073255;28;20204;-82
2022/09/25 05:09:50;;;;;;;22.40;15.50;;;;;;;12.31;97.98;100496.13;5079615;28;20685;-83
2022/09/25 05:12:17;;;;;;;20.63;15.73;;;;;;;12.33;98.18;100496.00;5080689;28;20234;-83
2022/09/25 05:14:43;;;;;;;19.30;15.10;;;;;;;12.32;98.13;100499.63;5078685;28;20229;-83
2022/09/25 05:17:11;;;;;;;22.97;15.43;;;;;;;12.32;97.85;100499.63;5074101;28;20218;-83
2022/09/25 05:19:38;;;;;;;25.47;15.23;;;;;;;12.33;98.04;100498.69;5072045;28;20220;-83
2022/09/25 05:22:05;;;;;;;27.93;15.97;;;;;;;12.33;97.99;100496.84;5069985;28;20613;-82
2022/09/25 05:24:31;;;;;;;22.20;15.77;;;;;;;12.34;98.10;100500.38;5069441;28;20228;-83
2022/09/25 05:26:58;;;;;;;20.80;14.87;;;;;;;12.35;98.05;100499.41;5073206;28;20720;-83
2022/09/25 05:29:25;;;;;;;21.67;15.00;;;;;;;12.34;97.81;100501.25;5079000;28;20215;-83
2022/09/25 05:31:51;;;;;;;23.30;15.63;;;;;;;12.35;97.96;100504.75;5062365;28;20227;-83
2022/09/25 05:34:19;;;;;;;21.33;14.83;;;;;;;12.35;97.77;100497.59;5069983;28;20234;-82
2022/09/25 05:36:46;;;;;;;22.90;15.17;;;;;;;12.36;97.79;100499.28;5067077;28;20243;-83
2022/09/25 05:39:12;;;;;;;20.10;15.07;;;;;;;12.36;97.71;100501.94;5073667;28;20301;-83
2022/09/25 05:41:39;;;;;;;20.33;15.43;;;;;;;12.36;97.39;100503.81;5068261;28;20205;-83
2022/09/25 05:44:08;;;;;;;20.13;15.53;;;;;;;12.38;97.43;100504.50;5064435;28;20220;-83
2022/09/25 05:46:35;;;;;;;23.67;15.50;;;;;;;12.36;97.54;100501.94;5069157;28;20200;-84
2022/09/25 05:49:02;;;;;;;25.23;15.37;;;;;;;12.35;97.47;100510.97;5064183;28;20214;-82
2022/09/25 05:51:30;;;;;;;21.47;15.00;;;;;;;12.35;97.45;100507.44;5066665;28;20235;-83
2022/09/25 05:53:57;;;;;;;19.43;15.63;;;;;;;12.34;97.18;100503.91;5070463;28;20232;-82
2022/09/25 05:56:24;;;;;;;18.53;13.13;;;;;;;12.34;97.12;100509.25;5078869;28;20219;-83
2022/09/25 05:58:51;;;;;;;19.00;13.33;;;;;;;12.35;97.19;100508.28;5077031;28;20224;-83
2022/09/25 06:01:18;;;;;;;18.17;12.40;;;;;;;12.33;96.93;100504.03;5079905;28;20298;-83
2022/09/25 06:03:45;;;;;;;21.07;13.37;;;;;;;12.31;96.77;100501.47;5070457;28;20239;-84
2022/09/25 06:06:11;;;;;;;19.73;12.47;;;;;;;12.32;96.69;100505.84;5077250;28;20557;-83
2022/09/25 06:08:39;;;;;;;18.73;11.70;;;;;;;12.31;96.55;100505.94;5079104;28;20206;-82
2022/09/25 06:11:07;;;;;;;14.63;9.83;;;;;;;12.30;96.14;100502.41;5082948;28;20228;-82
2022/09/25 06:13:35;;;;;;;16.57;9.67;;;;;;;12.29;96.13;100495.38;5069048;28;20224;-83
2022/09/25 06:16:02;;;;;;;12.90;8.93;;;;;;;12.28;95.78;100499.00;5075745;28;20211;-83
2022/09/25 06:18:29;;;;;;;12.70;8.53;;;;;;;12.27;95.67;100499.97;5075493;28;20594;-82
2022/09/25 06:21:01;;;;;;;13.77;9.30;;;;;;;12.28;95.50;100499.00;5081037;28;20613;-82
2022/09/25 06:23:28;;;;;;;14.47;8.93;;;;;;;12.28;95.71;100498.16;5074318;28;20687;-82
2022/09/25 06:26:00;;;;;;;11.53;7.90;;;;;;;12.30;95.49;100502.41;5082530;28;20215;-83
2022/09/25 06:28:26;;;;;;;12.93;8.03;;;;;;;12.30;95.39;100496.22;5076766;28;20717;-82
2022/09/25 06:30:53;;;;;;;9.87;7.83;;;;;;;12.28;95.34;100490.13;5072270;28;20685;-83
2022/09/25 06:33:19;;;;;;;16.17;8.80;;;;;;;12.30;95.37;100496.22;5077873;28;20224;-83
2022/09/25 06:35:48;;;;;;;14.00;8.13;;;;;;;12.30;95.13;100496.22;5079778;28;20205;-83
2022/09/25 06:38:16;;;;;;;15.30;7.73;;;;;;;12.31;95.24;100495.25;5086546;28;20207;-83
2022/09/25 06:40:42;;;;;;;12.53;7.40;;;;;;;12.33;95.20;100498.69;5066655;28;20564;-83
2022/09/25 06:43:12;;;;;;;15.10;7.83;;;;;;;12.33;94.90;100496.84;5074917;28;20228;-83
2022/09/25 06:45:42;;;;;;;12.93;7.87;;;;;;;12.34;94.98;100497.72;5070274;28;20208;-83
2022/09/25 06:48:11;;;;;;;13.37;7.80;;;;;;;12.38;94.60;100491.16;5071113;28;20208;-84
2022/09/25 06:50:41;;;;;;;9.20;7.00;;;;;;;12.38;94.86;100494.69;5073032;28;20634;-83
2022/09/25 06:53:08;;;;;;;14.90;7.93;;;;;;;12.40;94.70;100494.56;5076299;28;20217;-82
2022/09/25 06:55:35;;;;;;;11.90;7.40;;;;;;;12.41;94.43;100502.47;5069724;28;20211;-83
2022/09/25 06:58:03;;;;;;;15.40;7.87;;;;;;;12.42;94.31;100496.16;5070992;28;20206;-82
2022/09/25 07:00:31;;;;;;;11.33;7.20;;;;;;;12.43;94.34;100494.34;5071198;28;20675;-83
2022/09/25 07:05:43;;;;;;;12.57;7.33;;;;;;;12.44;94.19;100498.72;5062790;28;20254;-82
2022/09/25 07:08:10;;;;;;;13.37;7.57;;;;;;;12.44;93.89;100499.59;5067989;28;20663;-83
2022/09/25 07:10:36;;;;;;;16.00;7.57;;;;;;;12.46;93.86;100500.34;5068537;28;20560;-82
2022/09/25 07:13:03;;;;;;;13.70;8.03;;;;;;;12.49;93.64;100508.13;5067166;28;20719;-82
2022/09/25 07:15:31;;;;;;;13.33;7.13;;;;;;;12.52;93.88;100505.22;5064585;28;20291;-83
2022/09/25 07:18:01;;;;;;;12.90;7.43;;;;;;;12.56;93.56;100507.66;5061609;28;20212;-82
2022/09/25 07:20:27;;;;;;;12.13;7.07;;;;;;;12.58;93.64;100501.22;5067401;28;20212;-83
2022/09/25 07:22:59;;;;;;;15.10;7.47;;;;;;;12.61;93.58;100505.50;5065943;28;20196;-82
2022/09/25 07:25:28;;;;;;;12.60;7.43;;;;;;;12.64;93.37;100502.59;5068632;28;20286;-81
2022/09/25 07:27:55;;;;;;;11.70;7.40;;;;;;;12.65;93.36;100502.50;5066846;28;20201;-82
2022/09/25 07:30:21;;;;;;;14.00;7.50;;;;;;;12.68;93.59;100509.44;5072988;28;20292;-82
2022/09/25 07:32:49;;;;;;;12.87;7.10;;;;;;;12.70;93.23;100507.50;5067698;28;20232;-82
2022/09/25 07:35:17;;;;;;;15.47;7.80;;;;;;;12.72;93.41;100508.25;5072337;28;20225;-83
2022/09/25 07:37:43;;;;;;;10.93;7.60;;;;;;;12.73;93.10;100513.44;5077887;28;20209;-82
2022/09/25 07:40:12;;;;;;;10.50;7.07;;;;;;;12.76;93.15;100517.72;5080252;28;20205;-82
2022/09/25 07:42:38;;;;;;;14.57;8.10;;;;;;;12.77;92.87;100522.09;5070035;28;20212;-83
2022/09/25 07:45:05;;;;;;;16.23;7.70;;;;;;;12.78;92.54;100516.63;5078432;28;20224;-83
2022/09/25 07:47:32;;;;;;;14.40;8.23;;;;;;;12.80;92.67;100512.03;5064492;28;20200;-82
2022/09/25 07:50:00;;;;;;;10.63;7.70;;;;;;;12.81;92.29;100513.75;5065042;28;20204;-83
2022/09/25 07:52:26;;;;;;;15.03;7.90;;;;;;;12.81;91.69;100512.91;5069965;28;20231;-83
2022/09/25 07:54:52;;;;;;;12.40;7.20;;;;;;;12.82;91.39;100514.59;5077150;28;20875;-82
2022/09/25 07:57:20;;;;;;;9.97;7.20;;;;;;;12.84;91.23;100515.34;5076342;28;20585;-83
2022/09/25 07:59:46;;;;;;;10.77;7.43;;;;;;;12.85;91.45;100525.91;5061717;28;20209;-83
2022/09/25 08:02:13;;;;;;;11.67;8.23;;;;;;;12.88;91.14;100518.63;5065000;28;20204;-83
2022/09/25 08:04:39;;;;;;;10.23;7.47;;;;;;;12.90;90.49;100517.53;5062161;28;20593;-83
2022/09/25 08:07:07;;;;;;;10.20;7.67;;;;;;;12.91;90.68;100529.94;5060866;28;20562;-83
2022/09/25 08:09:34;;;;;;;12.00;6.90;;;;;;;12.91;90.64;100524.59;5064091;28;20567;-82
2022/09/25 08:12:01;;;;;;;13.27;7.60;;;;;;;12.93;90.40;100519.97;5065346;28;20636;-82
2022/09/25 08:14:27;;;;;;;11.03;7.67;;;;;;;12.96;90.42;100526.91;5062914;28;20316;-83
2022/09/25 08:16:54;;;;;;;10.10;7.27;;;;;;;12.96;89.87;100529.59;5065255;28;20205;-82
2022/09/25 08:19:22;;;;;;;12.30;7.60;;;;;;;12.97;89.56;100529.47;5060112;28;20228;-82
2022/09/25 08:21:49;;;;;;;10.07;7.70;;;;;;;12.99;89.78;100530.22;5061661;28;20204;-83
2022/09/25 08:24:17;;;;;;;12.93;7.67;;;;;;;13.01;89.70;100527.44;5059534;28;20328;-84
2022/09/25 08:26:43;;;;;;;10.27;6.83;;;;;;;13.05;89.55;100536.94;5063949;28;20212;-83
2022/09/25 08:29:10;;;;;;;18.13;7.37;;;;;;;13.05;89.27;100532.44;5060370;28;20599;-82
2022/09/25 08:31:36;;;;;;;11.23;7.80;;;;;;;13.06;88.99;100531.47;5058638;28;20229;-83
2022/09/25 08:34:03;;;;;;;11.87;7.23;;;;;;;13.06;88.81;100535.97;5063457;28;20232;-83
2022/09/25 08:36:29;;;;;;;12.53;8.03;;;;;;;13.07;88.45;100529.66;5067381;28;20235;-83
2022/09/25 08:38:57;;;;;;;13.37;8.30;;;;;;;13.09;88.58;100530.38;5062146;28;20232;-83
2022/09/25 08:41:27;;;;;;;15.17;10.67;;;;;;;13.10;88.03;100540.09;5066181;28;20622;-84
2022/09/25 08:44:00;;;;;;;12.73;10.10;;;;;;;13.09;88.03;100530.38;5065651;28;20256;-83
2022/09/25 08:49:25;;;;;;;15.20;10.63;;;;;;;13.08;87.61;100534.00;5061373;28;20709;-82
2022/09/25 08:51:56;;;;;;;19.10;11.80;;;;;;;13.09;87.63;100541.91;5063932;28;20223;-83
2022/09/25 08:54:25;;;;;;;12.63;10.50;;;;;;;13.10;86.84;100540.09;5071777;28;20221;-82
2022/09/25 08:56:56;;;;;;;13.90;10.00;;;;;;;13.10;87.14;100537.41;5068508;28;20546;-82
2022/09/25 08:59:27;;;;;;;11.87;8.57;;;;;;;13.11;86.37;100539.97;5070234;28;20205;-83
2022/09/25 09:01:58;;;;;;;13.67;9.87;;;;;;;13.10;86.60;100538.28;5071315;28;20200;-82
2022/09/25 09:04:30;;;;;;;10.50;8.43;;;;;;;13.10;86.13;100540.09;5072967;28;20236;-82
2022/09/25 09:07:03;;;;;;;11.17;7.67;;;;;;;13.11;85.54;100544.47;5065892;28;20200;-82
2022/09/25 09:09:40;;;;;;;9.07;6.97;;;;;;;13.12;85.60;100546.19;5074444;28;20233;-82
2022/09/25 09:12:12;;;;;;;10.60;7.73;;;;;;;13.13;85.71;100532.69;5071397;28;20208;-82
2022/09/25 09:14:44;;;;;;;12.80;6.33;;;;;;;13.15;85.54;100544.16;5068597;28;20221;-82
2022/09/25 09:17:17;;;;;;;12.00;7.00;;;;;;;13.17;85.35;100538.72;5059184;28;20659;-83
2022/09/25 09:19:48;;;;;;;10.23;7.00;;;;;;;13.19;85.27;100542.13;5062038;28;20193;-82
2022/09/25 09:22:20;;;;;;;9.57;6.97;;;;;;;13.19;84.95;100539.44;5061860;28;20196;-83
2022/09/25 09:24:55;;;;;;;8.87;6.70;;;;;;;13.22;84.75;100541.03;5062361;28;20745;-83
2022/09/25 09:27:37;;;;;;;11.87;7.87;;;;;;;13.24;84.50;100542.63;5059934;28;20258;-83
2022/09/25 09:30:12;;;;;;;8.30;7.07;;;;;;;13.26;84.56;100539.81;5064633;28;20225;-83
2022/09/25 09:33:02;;;;;;;8.20;6.60;;;;;;;13.29;84.39;100531.56;5062671;28;20209;-83
2022/09/25 09:35:39;;;;;;;13.13;7.30;;;;;;;13.33;83.89;100541.06;5063884;28;20204;-83
2022/09/25 09:38:20;;;;;;;9.13;6.43;;;;;;;13.36;84.13;100533.66;5065519;28;20205;-83
2022/09/25 09:41:00;;;;;;;16.07;6.50;;;;;;;13.45;84.27;100537.44;5056289;28;20565;-83
2022/09/25 09:43:41;;;;;;;9.77;5.70;;;;;;;13.50;83.80;100537.94;5064224;28;20228;-82
2022/09/25 09:46:15;;;;;;;8.43;5.63;;;;;;;13.52;83.27;100542.22;5062608;28;20205;-83
2022/09/25 09:48:48;;;;;;;6.97;5.73;;;;;;;13.53;83.14;100537.72;5062850;28;20214;-83
2022/09/25 09:51:19;;;;;;;7.80;6.10;;;;;;;13.54;82.76;100529.56;5063098;28;20200;-83
2022/09/25 09:53:50;;;;;;;7.93;5.77;;;;;;;13.59;82.92;100531.03;5057249;28;20236;-83
2022/09/25 09:56:20;;;;;;;7.83;5.50;;;;;;;13.64;83.19;100537.72;5058349;28;20581;-83
2022/09/25 09:58:51;;;;;;;6.83;4.97;;;;;;;13.68;82.63;100536.50;5056243;28;20192;-83
2022/09/25 10:01:21;;;;;;;6.67;5.40;;;;;;;13.72;82.61;100529.09;5060759;28;20224;-83
2022/09/25 10:03:52;;;;;;;8.40;4.97;;;;;;;13.74;82.13;100528.03;5058610;28;20222;-83
2022/09/25 10:06:22;;;;;;;9.93;5.30;;;;;;;13.80;81.99;100532.88;5062702;28;20208;-83
2022/09/25 10:08:49;;;;;;;8.70;4.90;;;;;;;13.83;82.14;100529.09;5058937;28;20205;-82
2022/09/25 10:11:17;;;;;;;5.93;5.33;;;;;;;13.83;81.91;100529.97;5056060;28;20221;-83
2022/09/25 10:13:45;;;;;;;11.33;6.73;;;;;;;13.84;81.90;100526.31;5058897;28;20236;-83
2022/09/25 10:16:16;;;;;;;8.67;6.13;;;;;;;13.87;81.40;100525.22;5060339;28;20212;-84
2022/09/25 10:18:49;;;;;;;6.00;5.40;;;;;;;13.88;81.24;100525.09;5063155;28;20204;-82
2022/09/25 10:21:18;;;;;;;6.90;5.80;;;;;;;13.90;80.89;100520.47;5062200;28;20204;-82
2022/09/25 10:23:50;;;;;;;6.37;5.70;;;;;;;13.92;80.93;100519.50;5065680;28;20221;-84
2022/09/25 10:26:27;;;;;;;6.77;5.53;;;;;;;13.96;81.07;100529.00;5066262;28;20200;-83
2022/09/25 10:28:56;;;;;;;9.03;5.47;;;;;;;13.99;80.94;100531.41;5065974;28;20200;-83
2022/09/25 10:31:26;;;;;;;9.10;6.30;;;;;;;14.03;81.16;100531.06;5065356;28;20205;-83
2022/09/25 10:34:05;;;;;;;6.17;5.40;;;;;;;14.05;81.07;100528.25;5065212;28;20239;-84
2022/09/25 10:36:39;;;;;;;6.83;6.13;;;;;;;14.06;80.57;100533.50;5060131;28;20216;-83
2022/09/25 10:39:33;;;;;;;6.80;5.63;;;;;;;14.08;80.56;100528.03;5068919;28;20659;-84
2022/09/25 10:42:00;;;;;;;6.83;6.10;;;;;;;14.10;80.78;100536.78;5069473;28;20212;-84
2022/09/25 10:44:33;;;;;;;7.83;6.87;;;;;;;14.13;80.53;100539.22;5073512;28;20690;-83
2022/09/25 10:50:17;;;;;;;9.23;6.67;;;;;;;14.12;79.66;100530.34;5067038;28;20208;-83
2022/09/25 10:52:48;;;;;;;7.43;6.70;;;;;;;14.14;80.02;100528.41;5068926;28;20228;-85
2022/09/25 10:55:24;;;;;;;11.40;7.27;;;;;;;14.16;79.59;100528.25;5067437;28;20271;-83
2022/09/25 10:57:57;;;;;;;7.50;6.60;;;;;;;14.18;79.72;100521.78;5064765;28;20211;-82
2022/09/25 11:00:25;;;;;;;6.50;5.90;;;;;;;14.19;79.28;100526.19;5064565;28;20227;-83
2022/09/25 11:02:57;;;;;;;6.23;5.17;;;;;;;14.18;79.06;100527.16;5068694;28;20561;-83
2022/09/25 11:05:28;;;;;;;6.07;5.47;;;;;;;14.17;78.52;100528.13;5074159;28;20205;-84
2022/09/25 11:07:57;;;;;;;6.13;5.10;;;;;;;14.16;77.99;100526.41;5075026;28;20205;-83
2022/09/25 11:10:26;;;;;;;8.00;5.17;;;;;;;14.18;78.43;100524.47;5076382;28;20577;-82
2022/09/25 11:12:53;;;;;;;5.73;5.17;;;;;;;14.21;77.92;100528.75;5073440;28;20232;-83
2022/09/25 11:15:23;;;;;;;7.97;5.17;;;;;;;14.23;77.94;100522.28;5072634;28;20212;-83
2022/09/25 11:17:52;;;;;;;5.87;5.17;;;;;;;14.25;78.00;100531.06;5072184;28;20244;-83
2022/09/25 11:20:28;;;;;;;5.97;5.17;;;;;;;14.30;78.21;100522.66;5065356;28;20201;-84
2022/09/25 11:23:21;;;;;;;11.77;5.87;;;;;;;14.32;77.90;100511.81;5071944;28;20242;-83
2022/09/25 11:25:53;;;;;;;7.03;5.40;;;;;;;14.37;77.54;100512.28;5067741;28;20204;-82
2022/09/25 11:28:31;;;;;;;5.67;5.10;;;;;;;14.39;77.51;100516.53;5068455;28;20192;-83
2022/09/25 11:31:03;;;;;;;8.13;5.00;;;;;;;14.43;77.33;100514.50;5064829;28;20567;-83
2022/09/25 11:33:41;;;;;;;5.93;5.30;;;;;;;14.46;76.90;100511.56;5063386;28;20602;-83
2022/09/25 11:36:17;;;;;;;5.37;4.87;;;;;;;14.52;77.19;100513.72;5063840;28;20251;-83
2022/09/25 11:41:35;;;;;;;6.33;5.10;;;;;;;14.57;76.62;100501.66;5067950;28;20693;-83
2022/09/25 11:44:13;;;;;;;5.03;4.13;;;;;;;14.59;76.28;100502.41;5066934;28;20311;-83